Time;durP1;ratioP1;P1;durP2;ratioP2;P2;SDS_P1;SDS_P2;PMS_P1;PMS_P2;Temp;Humidity;BMP_temperature;BMP_pressure;BME280_temperature;BME280_humidity;BME280_pressure;Samples;Min_cycle;Max_cycle;Signal;HPM_P1;HPM_P2
2021/08/20 00:01:11;;;;;;;5.37;4.07;;;16.10;99.90;16.00;96897.00;;;;5104900;28;20215;-66
2021/08/20 00:04:02;;;;;;;3.77;2.97;;;16.10;99.90;16.00;96888.00;;;;5104821;28;20590;-66
2021/08/20 00:06:51;;;;;;;5.67;2.97;;;16.10;99.90;16.00;96893.00;;;;5104227;28;20195;-66
2021/08/20 00:09:40;;;;;;;6.13;3.37;;;16.10;99.90;16.00;96906.00;;;;5097128;28;20693;-66
2021/08/20 00:12:29;;;;;;;7.17;3.57;;;16.00;99.90;16.00;96897.00;;;;5104166;28;20249;-66
2021/08/20 00:15:19;;;;;;;6.47;3.37;;;16.00;99.90;16.10;96890.00;;;;5103961;28;20225;-66
2021/08/20 00:18:08;;;;;;;5.57;3.27;;;16.00;99.90;16.20;96900.00;;;;5103781;28;20218;-66
2021/08/20 00:20:57;;;;;;;3.73;3.13;;;16.00;99.90;16.20;96902.00;;;;5107736;28;20244;-66
2021/08/20 00:23:46;;;;;;;4.93;3.70;;;16.00;99.90;16.00;96909.00;;;;5108617;28;20195;-66
2021/08/20 00:26:35;;;;;;;6.20;2.73;;;16.00;99.90;15.80;96905.00;;;;5108867;28;20205;-66
2021/08/20 00:29:24;;;;;;;4.73;2.97;;;16.00;99.90;15.80;96911.00;;;;5107999;28;20571;-66
2021/08/20 00:32:14;;;;;;;4.63;3.33;;;15.90;99.90;15.90;96903.00;;;;5107546;28;20238;-66
2021/08/20 00:35:04;;;;;;;5.27;3.20;;;15.90;99.90;15.70;96898.00;;;;5106056;28;20225;-66
2021/08/20 00:37:53;;;;;;;4.47;2.87;;;15.90;99.90;15.80;96903.00;;;;5108680;28;20283;-66
2021/08/20 00:40:43;;;;;;;5.93;3.17;;;15.90;99.90;15.90;96900.00;;;;5108164;28;20221;-66
2021/08/20 00:43:32;;;;;;;4.53;2.77;;;15.80;99.90;15.90;96891.00;;;;5107499;28;20207;-66
2021/08/20 00:46:21;;;;;;;8.60;6.60;;;15.80;99.90;16.00;96894.00;;;;5104568;28;20194;-67
2021/08/20 00:49:12;;;;;;;5.80;3.00;;;15.80;99.90;16.00;96886.00;;;;5109264;28;20265;-66
2021/08/20 00:52:01;;;;;;;4.37;2.80;;;15.90;99.90;15.90;96894.00;;;;5108305;28;20222;-66
2021/08/20 00:54:50;;;;;;;3.33;2.87;;;15.90;99.90;15.80;96885.00;;;;5110118;27;20590;-66
2021/08/20 00:57:40;;;;;;;4.70;3.20;;;15.90;99.90;15.70;96891.00;;;;5106777;28;20215;-66
2021/08/20 01:00:29;;;;;;;3.90;3.20;;;15.80;99.90;15.80;96879.00;;;;5108432;28;20199;-66
2021/08/20 01:03:17;;;;;;;9.73;3.37;;;15.80;99.90;15.80;96875.00;;;;5107802;28;20631;-66
2021/08/20 01:06:08;;;;;;;3.87;2.70;;;15.80;99.90;15.60;96875.00;;;;5107886;28;20677;-66
2021/08/20 01:08:57;;;;;;;4.47;3.07;;;15.80;99.90;15.40;96876.00;;;;5098943;28;20187;-66
2021/08/20 01:11:46;;;;;;;3.17;2.87;;;15.70;99.90;15.30;96878.00;;;;5087300;28;20237;-66
2021/08/20 01:14:37;;;;;;;5.03;2.43;;;15.60;99.90;15.20;96873.00;;;;5087135;28;20781;-66
2021/08/20 01:17:26;;;;;;;8.23;2.90;;;15.50;99.90;15.30;96880.00;;;;5086100;28;20592;-66
2021/08/20 01:20:16;;;;;;;3.67;2.60;;;15.90;99.90;15.40;96875.00;;;;5087536;28;20199;-66
2021/08/20 01:23:08;;;;;;;3.53;3.23;;;15.40;99.90;15.60;96875.00;;;;5083882;28;20682;-66
2021/08/20 01:25:59;;;;;;;3.77;2.77;;;15.40;99.90;15.60;96874.00;;;;5087292;28;20202;-66
2021/08/20 01:28:48;;;;;;;3.97;3.00;;;15.50;99.90;15.70;96871.00;;;;5087782;28;20206;-66
2021/08/20 01:31:37;;;;;;;4.47;3.27;;;15.50;99.90;15.60;96874.00;;;;5086771;28;20538;-66
2021/08/20 01:34:26;;;;;;;3.50;2.60;;;15.60;99.90;15.50;96867.00;;;;5086580;28;20218;-66
2021/08/20 01:37:15;;;;;;;5.50;3.07;;;15.50;99.90;15.40;96870.00;;;;5085380;28;20197;-66
2021/08/20 01:40:05;;;;;;;4.57;3.00;;;15.50;99.90;15.00;96870.00;;;;5088135;28;20207;-66
2021/08/20 01:42:56;;;;;;;3.70;3.30;;;15.50;99.90;15.00;96871.00;;;;5086031;28;20198;-66
2021/08/20 01:45:45;;;;;;;4.53;3.13;;;15.40;99.90;15.20;96866.00;;;;5083550;28;20203;-66
2021/08/20 01:48:34;;;;;;;5.20;2.87;;;15.30;99.90;15.30;96868.00;;;;5106770;28;20198;-66
2021/08/20 01:51:25;;;;;;;5.93;3.30;;;15.30;99.90;15.30;96875.00;;;;5107512;28;20725;-66
2021/08/20 01:54:14;;;;;;;5.17;2.87;;;15.30;99.90;15.10;96870.00;;;;5107691;28;20575;-66
2021/08/20 01:57:03;;;;;;;4.30;2.97;;;15.20;99.90;15.10;96876.00;;;;5107758;28;20436;-66
2021/08/20 01:59:53;;;;;;;4.40;2.93;;;15.30;99.90;15.00;96871.00;;;;5105595;28;20205;-66
2021/08/20 02:02:42;;;;;;;4.10;3.03;;;15.20;99.90;15.10;96875.00;;;;5105884;28;20493;-66
2021/08/20 02:05:32;;;;;;;4.10;3.00;;;15.20;99.90;15.20;96872.00;;;;5107480;28;20309;-66
2021/08/20 02:08:21;;;;;;;4.07;3.20;;;15.20;99.90;15.30;96880.00;;;;5102328;28;20199;-66
2021/08/20 02:11:10;;;;;;;5.07;2.60;;;15.20;99.90;15.20;96875.00;;;;5085690;28;20233;-66
2021/08/20 02:14:00;;;;;;;3.27;2.77;;;15.20;99.90;15.20;96870.00;;;;5085900;28;20208;-66
2021/08/20 02:16:50;;;;;;;5.33;3.50;;;15.20;99.90;15.40;96867.00;;;;5085915;28;20200;-66
2021/08/20 02:19:39;;;;;;;3.40;3.07;;;15.20;99.90;15.50;96874.00;;;;5086555;28;20227;-66
2021/08/20 02:22:28;;;;;;;6.70;3.20;;;15.30;99.90;15.30;96874.00;;;;5084544;28;20233;-66
2021/08/20 02:25:16;;;;;;;5.33;2.97;;;15.30;99.90;15.10;96864.00;;;;5087603;28;20682;-66
2021/08/20 02:28:06;;;;;;;6.17;3.80;;;15.30;99.90;15.10;96872.00;;;;5085996;28;20210;-66
2021/08/20 02:30:55;;;;;;;3.67;3.00;;;15.20;99.90;15.00;96865.00;;;;5085319;28;20218;-66
2021/08/20 02:33:45;;;;;;;3.70;3.03;;;15.20;99.90;15.10;96874.00;;;;5086066;28;20206;-66
2021/08/20 02:36:34;;;;;;;6.57;3.10;;;15.20;99.90;14.90;96871.00;;;;5084302;28;20578;-66
2021/08/20 02:39:24;;;;;;;4.47;2.90;;;15.10;99.90;14.70;96870.00;;;;5086385;28;20621;-66
2021/08/20 02:42:12;;;;;;;3.33;2.60;;;15.10;99.90;14.70;96863.00;;;;5085550;28;20223;-66
2021/08/20 02:45:01;;;;;;;3.47;2.40;;;15.00;99.90;14.90;96868.00;;;;5085506;28;20199;-66
2021/08/20 02:47:50;;;;;;;4.53;3.90;;;15.00;99.90;15.10;96869.00;;;;5085640;28;20693;-66
2021/08/20 02:50:40;;;;;;;3.13;2.83;;;15.00;99.90;15.20;96870.00;;;;5086516;28;20611;-66
2021/08/20 02:53:29;;;;;;;4.30;3.47;;;15.00;99.90;15.10;96870.00;;;;5085569;28;20269;-66
2021/08/20 02:56:19;;;;;;;4.43;3.10;;;15.00;99.90;14.90;96869.00;;;;5085783;28;20199;-66
2021/08/20 02:59:08;;;;;;;3.37;2.33;;;15.00;99.90;14.90;96864.00;;;;5085162;28;20222;-66
2021/08/20 03:01:58;;;;;;;4.30;3.47;;;15.00;99.90;14.70;96862.00;;;;5083680;28;20237;-66
2021/08/20 03:04:47;;;;;;;4.43;2.97;;;14.90;99.90;14.90;96865.00;;;;5085416;28;20257;-66
2021/08/20 03:07:37;;;;;;;3.33;2.90;;;15.00;99.90;15.00;96869.00;;;;5085215;28;20236;-66
2021/08/20 03:10:26;;;;;;;5.70;3.23;;;14.90;99.90;15.00;96864.00;;;;5085861;28;20196;-66
2021/08/20 03:13:15;;;;;;;4.20;3.23;;;15.00;99.90;15.10;96859.00;;;;5086181;28;20210;-66
2021/08/20 03:16:04;;;;;;;5.83;3.43;;;15.00;99.90;15.20;96863.00;;;;5085922;28;20203;-66
2021/08/20 03:18:53;;;;;;;4.43;3.10;;;15.10;99.90;15.20;96855.00;;;;5084322;28;20687;-66
2021/08/20 03:21:42;;;;;;;3.90;3.17;;;15.10;99.90;15.20;96864.00;;;;5085634;28;20219;-66
2021/08/20 03:24:32;;;;;;;10.50;3.33;;;15.10;99.90;15.10;96866.00;;;;5084891;28;20194;-66
2021/08/20 03:27:21;;;;;;;4.80;3.30;;;15.10;99.90;14.90;96857.00;;;;5084369;28;20196;-66
2021/08/20 03:30:12;;;;;;;9.17;2.90;;;15.10;99.90;14.90;96856.00;;;;5085020;28;20622;-66
2021/08/20 03:33:01;;;;;;;3.70;2.87;;;15.10;99.90;14.90;96867.00;;;;5085076;28;20195;-66
2021/08/20 03:35:49;;;;;;;4.43;3.20;;;15.00;99.90;14.90;96865.00;;;;5083794;28;20203;-66
2021/08/20 03:38:38;;;;;;;4.90;2.60;;;15.00;99.90;15.00;96871.00;;;;5084918;28;20218;-66
2021/08/20 03:41:29;;;;;;;5.40;3.07;;;15.00;99.90;15.00;96876.00;;;;5085437;28;20215;-66
2021/08/20 03:44:19;;;;;;;4.10;3.43;;;15.00;99.90;15.00;96871.00;;;;5084575;28;20205;-66
2021/08/20 03:47:08;;;;;;;5.93;3.07;;;15.00;99.90;15.00;96882.00;;;;5084969;28;20665;-66
2021/08/20 03:49:56;;;;;;;3.47;2.67;;;15.00;99.90;15.20;96876.00;;;;5085885;28;20292;-66
2021/08/20 03:52:45;;;;;;;3.63;2.50;;;15.00;99.90;15.30;96884.00;;;;5084170;28;20217;-66
2021/08/20 03:55:34;;;;;;;6.00;4.03;;;15.10;99.90;15.10;96885.00;;;;5088281;28;20720;-66
2021/08/20 03:58:25;;;;;;;6.00;2.83;;;15.10;99.90;15.20;96880.00;;;;5089477;28;20711;-66
2021/08/20 04:01:13;;;;;;;4.23;3.20;;;15.10;99.90;15.20;96891.00;;;;5087562;28;20218;-66
2021/08/20 04:04:03;;;;;;;4.50;3.07;;;15.10;99.90;15.20;96884.00;;;;5087806;28;20206;-66
2021/08/20 04:06:52;;;;;;;4.57;3.17;;;15.20;99.90;15.20;96893.00;;;;5088883;28;20214;-66
2021/08/20 04:09:41;;;;;;;5.60;3.63;;;15.20;99.90;15.20;96884.00;;;;5089460;28;20592;-66
2021/08/20 04:12:30;;;;;;;3.70;3.03;;;15.20;99.90;15.20;96884.00;;;;5087901;28;20709;-66
2021/08/20 04:15:21;;;;;;;3.13;2.83;;;15.20;99.90;15.30;96889.00;;;;5089085;28;20207;-66
2021/08/20 04:18:10;;;;;;;4.40;3.33;;;15.20;99.90;15.40;96884.00;;;;5089217;28;20199;-66
2021/08/20 04:20:59;;;;;;;4.17;2.87;;;15.20;99.90;15.40;96886.00;;;;5087600;28;20242;-66
2021/08/20 04:23:47;;;;;;;4.17;3.47;;;15.20;99.90;15.40;96890.00;;;;5088566;28;20206;-66
2021/08/20 04:26:36;;;;;;;4.10;3.03;;;15.20;99.90;15.40;96883.00;;;;5088855;28;20212;-66
2021/08/20 04:29:25;;;;;;;5.00;2.67;;;15.30;99.90;15.40;96877.00;;;;5087773;28;20706;-66
2021/08/20 04:32:16;;;;;;;3.87;3.13;;;15.30;99.90;15.50;96887.00;;;;5087686;28;20223;-66
2021/08/20 04:35:06;;;;;;;4.87;2.73;;;15.40;99.90;15.50;96881.00;;;;5086931;28;20199;-67
2021/08/20 04:37:55;;;;;;;7.80;3.53;;;15.40;99.90;15.60;96876.00;;;;5088647;28;20203;-66
2021/08/20 04:40:44;;;;;;;5.03;2.80;;;15.40;99.90;15.40;96880.00;;;;5088458;28;20253;-66
2021/08/20 04:43:33;;;;;;;6.60;3.40;;;15.40;99.90;15.20;96874.00;;;;5088312;28;20203;-66
2021/08/20 04:46:22;;;;;;;3.47;2.93;;;15.40;99.90;15.10;96886.00;;;;5084379;28;20206;-66
2021/08/20 04:49:12;;;;;;;5.33;3.07;;;15.40;99.90;15.10;96893.00;;;;5094567;28;20662;-66
2021/08/20 04:52:01;;;;;;;4.53;3.20;;;15.30;99.90;14.90;96897.00;;;;5087635;28;20245;-66
2021/08/20 04:54:50;;;;;;;4.03;3.00;;;15.20;99.90;15.00;96898.00;;;;5089374;28;20203;-66
2021/08/20 04:57:39;;;;;;;4.20;3.43;;;15.20;99.90;15.10;96909.00;;;;5086917;28;20215;-66
2021/08/20 05:00:28;;;;;;;6.63;3.30;;;15.20;99.90;15.20;96903.00;;;;5088179;28;20211;-66
2021/08/20 05:03:18;;;;;;;4.27;3.20;;;15.20;99.90;15.20;96901.00;;;;5088141;28;20226;-66
2021/08/20 05:06:08;;;;;;;4.67;3.73;;;15.20;99.90;15.30;96907.00;;;;5088536;28;20200;-66
2021/08/20 05:08:57;;;;;;;6.53;3.93;;;15.30;99.90;15.30;96904.00;;;;5095672;28;20198;-66
2021/08/20 05:11:46;;;;;;;6.07;3.37;;;15.30;99.90;15.50;96905.00;;;;5107340;28;20223;-66
2021/08/20 05:14:35;;;;;;;4.23;3.20;;;15.40;99.90;15.60;96910.00;;;;5107314;28;20209;-66
2021/08/20 05:17:24;;;;;;;4.87;3.60;;;15.50;99.90;15.60;96909.00;;;;5107378;28;20202;-66
2021/08/20 05:20:13;;;;;;;5.50;3.23;;;15.60;99.90;15.50;96907.00;;;;5107826;28;20223;-66
2021/08/20 05:23:04;;;;;;;6.00;3.30;;;15.60;99.90;15.60;96903.00;;;;5107024;28;20195;-66
2021/08/20 05:25:54;;;;;;;5.57;3.30;;;15.60;99.90;15.70;96911.00;;;;5106994;28;20665;-67
2021/08/20 05:28:43;;;;;;;5.87;3.50;;;15.60;99.90;15.70;96915.00;;;;5107849;28;20195;-66
2021/08/20 05:31:32;;;;;;;3.70;2.60;;;15.70;99.90;15.60;96910.00;;;;5107573;28;20252;-66
2021/08/20 05:34:21;;;;;;;5.13;2.80;;;15.70;99.90;15.70;96914.00;;;;5107243;28;20283;-66
2021/08/20 05:37:10;;;;;;;3.97;3.13;;;15.80;99.90;15.90;96917.00;;;;5106252;28;20203;-66
2021/08/20 05:40:00;;;;;;;5.10;3.00;;;15.80;99.90;16.10;96918.00;;;;5106811;28;20711;-66
2021/08/20 05:42:49;;;;;;;7.43;3.30;;;15.90;99.90;16.30;96922.00;;;;5107387;28;20516;-66
2021/08/20 05:45:39;;;;;;;7.43;3.77;;;15.90;99.90;16.50;96918.00;;;;5107537;28;20271;-66
2021/08/20 05:48:27;;;;;;;5.80;4.03;;;16.10;99.90;16.60;96922.00;;;;5107979;28;20598;-66
2021/08/20 05:51:16;;;;;;;7.10;4.53;;;16.20;99.90;16.60;96924.00;;;;5105363;28;20234;-66
2021/08/20 05:54:05;;;;;;;4.20;3.47;;;16.30;99.90;16.60;96931.00;;;;5105947;28;20206;-66
2021/08/20 05:56:55;;;;;;;9.17;3.53;;;16.40;99.90;16.60;96931.00;;;;5106404;28;20206;-66
2021/08/20 05:59:44;;;;;;;6.27;3.37;;;16.50;99.90;16.70;96938.00;;;;5106538;28;20218;-66
2021/08/20 06:02:33;;;;;;;7.97;4.00;;;16.50;99.90;16.70;96931.00;;;;5104985;28;20701;-66
2021/08/20 06:05:22;;;;;;;13.40;3.90;;;16.60;99.90;16.80;96929.00;;;;5107207;28;20209;-66
2021/08/20 06:08:11;;;;;;;4.63;3.80;;;16.70;99.90;17.10;96924.00;;;;5104448;28;20222;-66
2021/08/20 06:11:00;;;;;;;7.50;4.27;;;16.70;99.90;17.20;96931.00;;;;5085394;28;20230;-65
2021/08/20 06:13:50;;;;;;;8.93;4.40;;;16.80;99.90;17.30;96924.00;;;;5085629;28;20195;-66
2021/08/20 06:16:39;;;;;;;10.13;4.83;;;17.00;99.90;17.20;96924.00;;;;5086590;28;20613;-66
2021/08/20 06:19:28;;;;;;;9.87;4.23;;;17.00;99.90;17.20;96928.00;;;;5085808;28;20196;-66
2021/08/20 06:22:17;;;;;;;10.50;4.90;;;17.00;99.90;17.30;96925.00;;;;5082804;28;20219;-67
2021/08/20 06:25:07;;;;;;;7.20;4.07;;;17.10;99.90;17.30;96921.00;;;;5095080;28;20191;-66
2021/08/20 06:27:56;;;;;;;7.70;4.13;;;17.10;99.90;17.30;96930.00;;;;5106528;28;20195;-67
2021/08/20 06:30:47;;;;;;;8.87;4.57;;;17.10;99.90;17.10;96920.00;;;;5102041;28;20709;-66
2021/08/20 06:33:38;;;;;;;8.17;4.03;;;17.10;99.90;17.10;96920.00;;;;5083764;28;20218;-66
2021/08/20 06:36:27;;;;;;;6.73;4.50;;;17.10;99.90;17.30;96919.00;;;;5086444;28;20689;-66
2021/08/20 06:39:16;;;;;;;12.20;4.97;;;17.10;99.90;17.40;96918.00;;;;5085281;28;20677;-66
2021/08/20 06:42:06;;;;;;;5.63;4.17;;;17.20;99.90;17.70;96922.00;;;;5086086;28;20245;-66
2021/08/20 06:44:54;;;;;;;7.63;3.70;;;17.30;99.90;17.60;96913.00;;;;5087946;28;20570;-66
2021/08/20 06:47:45;;;;;;;5.43;3.93;;;17.50;99.90;17.70;96919.00;;;;5085673;28;20657;-66
2021/08/20 06:50:34;;;;;;;7.63;5.23;;;17.50;99.90;17.90;96914.00;;;;5091903;28;20206;-66
2021/08/20 06:53:22;;;;;;;7.03;4.10;;;17.60;99.90;18.10;96921.00;;;;5105381;28;20593;-66
2021/08/20 06:56:11;;;;;;;10.80;4.67;;;17.80;99.90;18.20;96906.00;;;;5106936;28;20214;-66
2021/08/20 06:59:00;;;;;;;7.33;4.37;;;17.90;99.90;18.60;96916.00;;;;5104965;28;20203;-66
2021/08/20 07:01:49;;;;;;;9.67;4.27;;;18.10;99.90;18.90;96919.00;;;;5105025;28;20230;-66
2021/08/20 07:04:40;;;;;;;6.47;4.47;;;18.30;99.90;19.20;96912.00;;;;5096444;28;20222;-66
2021/08/20 07:07:33;;;;;;;10.77;6.00;;;18.50;99.90;19.40;96917.00;;;;5104814;27;20206;-66
2021/08/20 07:10:22;;;;;;;4.70;3.57;;;18.70;99.90;19.70;96908.00;;;;5098175;28;20199;-66
2021/08/20 07:13:12;;;;;;;16.90;4.83;;;19.00;99.90;19.90;96912.00;;;;5098161;28;20770;-66
2021/08/20 07:16:00;;;;;;;9.60;4.33;;;19.20;99.90;20.10;96919.00;;;;5108475;28;20664;-66
2021/08/20 07:18:49;;;;;;;9.90;5.40;;;19.40;99.90;20.30;96928.00;;;;5114267;28;20786;-66
2021/08/20 07:21:40;;;;;;;7.77;4.20;;;19.60;99.90;20.40;96918.00;;;;5100538;28;20265;-66
2021/08/20 07:24:28;;;;;;;5.80;4.40;;;19.80;99.90;20.50;96912.00;;;;5097662;28;20229;-66
2021/08/20 07:27:17;;;;;;;9.13;4.33;;;19.90;99.90;20.70;96911.00;;;;5094309;28;20275;-66
2021/08/20 07:30:08;;;;;;;8.07;4.50;;;20.10;99.90;20.70;96909.00;;;;5104343;27;20204;-67
2021/08/20 07:32:57;;;;;;;5.37;3.63;;;20.20;99.90;21.00;96913.00;;;;5101236;27;20199;-67
2021/08/20 07:35:45;;;;;;;11.13;3.87;;;20.30;99.90;21.10;96911.00;;;;5103620;28;20218;-66
2021/08/20 07:38:36;;;;;;;6.83;4.10;;;20.50;99.90;21.30;96911.00;;;;5100375;27;20213;-66
2021/08/20 07:41:24;;;;;;;6.73;4.27;;;20.60;99.90;21.40;96915.00;;;;5102313;28;20713;-67
2021/08/20 07:44:14;;;;;;;7.10;3.67;;;20.80;99.90;21.50;96912.00;;;;5103101;28;20207;-66
2021/08/20 07:47:04;;;;;;;5.83;3.67;;;20.90;99.90;21.70;96914.00;;;;5101843;27;20205;-66
2021/08/20 07:49:53;;;;;;;6.10;3.73;;;21.10;99.90;21.90;96904.00;;;;5092522;28;20214;-66
2021/08/20 07:52:44;;;;;;;7.90;4.17;;;21.20;99.90;22.00;96917.00;;;;5098769;27;20724;-66
2021/08/20 07:55:34;;;;;;;5.03;3.73;;;21.30;99.90;22.20;96919.00;;;;5101945;28;20199;-67
2021/08/20 07:58:23;;;;;;;6.40;3.53;;;21.50;99.90;22.30;96904.00;;;;5076176;28;20678;-66
2021/08/20 08:01:12;;;;;;;6.27;3.37;;;21.60;99.90;22.30;96910.00;;;;5069238;28;20219;-66
2021/08/20 08:04:03;;;;;;;5.83;3.13;;;21.70;99.90;22.40;96901.00;;;;5084243;28;20210;-66
2021/08/20 08:06:52;;;;;;;4.20;3.03;;;21.90;99.90;22.60;96906.00;;;;5080809;28;20264;-67
2021/08/20 08:09:41;;;;;;;5.70;3.80;;;22.00;99.90;22.40;96911.00;;;;5078908;28;20212;-66
2021/08/20 08:12:31;;;;;;;4.87;3.23;;;22.10;99.90;22.60;96909.00;;;;5079653;28;20227;-66
2021/08/20 08:15:21;;;;;;;4.70;3.60;;;22.10;99.90;22.90;96922.00;;;;5075420;28;20635;-66
2021/08/20 08:18:10;;;;;;;6.00;3.40;;;22.20;99.90;22.60;96918.00;;;;5077747;28;20207;-66
2021/08/20 08:20:59;;;;;;;4.77;3.00;;;22.30;99.90;23.00;96921.00;;;;5086044;28;20744;-66
2021/08/20 08:23:47;;;;;;;3.97;3.13;;;22.40;99.90;23.20;96915.00;;;;5076840;28;20204;-66
2021/08/20 08:26:36;;;;;;;5.97;2.67;;;22.50;99.90;23.30;96917.00;;;;5084532;28;20217;-66
2021/08/20 08:29:27;;;;;;;5.60;3.07;;;22.70;99.90;23.00;96911.00;;;;5077692;28;20741;-66
2021/08/20 08:32:16;;;;;;;4.07;3.20;;;22.80;99.90;23.40;96912.00;;;;5072715;28;20234;-66
2021/08/20 08:35:06;;;;;;;3.70;2.97;;;22.90;99.90;23.90;96913.00;;;;5082024;28;20200;-67
2021/08/20 08:38:03;;;;;;;5.60;3.60;;;23.10;99.90;24.50;96909.00;;;;5082826;28;20725;-67
2021/08/20 08:40:52;;;;;;;4.13;3.03;;;23.30;99.90;24.90;96915.00;;;;5074572;28;20231;-67
2021/08/20 08:43:42;;;;;;;6.87;2.93;;;23.70;99.90;24.80;96919.00;;;;5074852;28;20208;-66
2021/08/20 08:46:37;;;;;;;4.83;3.77;;;24.00;99.90;24.70;96919.00;;;;5072364;28;20682;-66
2021/08/20 08:49:26;;;;;;;6.53;2.97;;;24.20;99.90;24.20;96921.00;;;;5075227;28;20608;-67
2021/08/20 08:52:15;;;;;;;3.40;3.10;;;24.10;99.90;24.30;96914.00;;;;5071952;28;20603;-66
2021/08/20 08:55:08;;;;;;;3.80;2.67;;;24.00;99.90;24.20;96914.00;;;;5071929;28;20690;-66
2021/08/20 08:57:57;;;;;;;3.63;2.77;;;23.90;99.90;24.10;96912.00;;;;5074120;28;20215;-66
2021/08/20 09:00:46;;;;;;;5.43;3.10;;;23.90;99.90;23.60;96925.00;;;;5081652;28;20769;-66
2021/08/20 09:03:36;;;;;;;5.50;3.27;;;23.70;98.10;24.10;96912.00;;;;5081691;28;20203;-66
2021/08/20 09:06:37;;;;;;;6.27;3.30;;;23.70;99.20;23.50;96903.00;;;;5075081;28;20209;-66
2021/08/20 09:09:27;;;;;;;5.30;3.30;;;23.60;98.70;23.30;96899.00;;;;5087146;28;20277;-66
2021/08/20 09:12:27;;;;;;;5.43;3.43;;;23.50;98.40;23.60;96907.00;;;;5080045;28;20827;-67
2021/08/20 09:15:17;;;;;;;4.17;2.87;;;23.50;99.20;24.00;96905.00;;;;5080726;28;20697;-66
2021/08/20 09:18:06;;;;;;;3.67;2.73;;;23.50;99.00;23.20;96899.00;;;;5080387;28;20200;-67
2021/08/20 09:20:56;;;;;;;4.10;2.73;;;23.40;98.20;23.80;96904.00;;;;5084904;28;20221;-67
2021/08/20 09:23:45;;;;;;;11.23;2.93;;;23.50;98.50;24.80;96902.00;;;;5083676;28;20225;-67
2021/08/20 09:26:34;;;;;;;6.57;3.47;;;23.70;99.90;25.20;96906.00;;;;5076299;28;20210;-67
2021/08/20 09:29:23;;;;;;;8.20;2.90;;;24.00;99.90;25.40;96890.00;;;;5081523;28;20209;-67
2021/08/20 09:32:12;;;;;;;3.57;2.87;;;24.30;99.10;25.70;96894.00;;;;5079973;28;20221;-66
2021/08/20 09:35:01;;;;;;;3.73;2.97;;;24.60;97.30;26.20;96902.00;;;;5079690;28;20209;-67
2021/08/20 09:37:52;;;;;;;5.77;3.30;;;24.90;96.50;26.30;96895.00;;;;5079375;28;20202;-67
2021/08/20 09:40:51;;;;;;;3.90;2.50;;;25.30;94.90;26.90;96888.00;;;;5082182;28;21111;-67
2021/08/20 09:43:41;;;;;;;2.80;2.50;;;25.70;94.80;27.00;96893.00;;;;5080340;28;20207;-67
2021/08/20 09:46:41;;;;;;;3.47;2.70;;;26.00;92.90;27.30;96888.00;;;;5084822;28;20281;-67
2021/08/20 09:49:30;;;;;;;4.30;2.70;;;26.20;92.90;27.60;96879.00;;;;5080572;28;20195;-67
2021/08/20 09:52:27;;;;;;;4.20;2.87;;;26.50;92.60;28.00;96874.00;;;;5073623;28;20226;-67
2021/08/20 09:55:37;;;;;;;2.93;2.67;;;26.80;90.90;28.10;96887.00;;;;5081599;28;20213;-67
2021/08/20 09:58:28;;;;;;;5.40;2.40;;;27.10;87.10;27.60;96891.00;;;;5071148;28;20221;-67
2021/08/20 10:01:17;;;;;;;4.60;2.80;;;27.10;85.30;26.50;96883.00;;;;5072935;28;20239;-67
2021/08/20 10:04:08;;;;;;;4.13;2.63;;;27.10;81.30;26.80;96881.00;;;;5085243;28;20198;-67
2021/08/20 10:07:00;;;;;;;3.33;2.33;;;26.80;81.40;27.30;96889.00;;;;5072134;28;20225;-67
2021/08/20 10:09:50;;;;;;;6.47;3.20;;;26.70;83.50;27.40;96894.00;;;;5085357;28;20209;-67
2021/08/20 10:12:42;;;;;;;3.67;2.63;;;26.80;82.00;26.50;96868.00;;;;5080655;28;20228;-67
2021/08/20 10:15:33;;;;;;;5.17;2.63;;;26.80;79.80;27.50;96876.00;;;;5073091;28;20207;-66
2021/08/20 10:18:22;;;;;;;4.40;2.30;;;26.80;80.30;27.20;96870.00;;;;5075327;28;20703;-66
2021/08/20 10:21:11;;;;;;;3.47;3.10;;;27.00;78.30;26.00;96872.00;;;;5082964;28;20309;-66
2021/08/20 10:24:01;;;;;;;5.27;2.63;;;26.70;75.70;26.20;96877.00;;;;5083574;28;20217;-66
2021/08/20 10:26:54;;;;;;;3.30;2.67;;;26.40;78.60;27.50;96867.00;;;;5077903;28;20206;-66
2021/08/20 10:29:48;;;;;;;5.10;3.00;;;26.50;80.60;26.20;96874.00;;;;5079858;28;20226;-66
2021/08/20 10:32:37;;;;;;;3.73;3.07;;;26.60;76.50;26.70;96872.00;;;;5075585;28;20233;-66
2021/08/20 10:35:53;;;;;;;3.60;2.60;;;26.50;77.00;27.20;96882.00;;;;5086139;28;20588;-66
2021/08/20 10:38:45;;;;;;;3.50;2.67;;;26.50;78.90;27.30;96880.00;;;;5082418;28;20589;-66
2021/08/20 10:41:35;;;;;;;6.70;2.60;;;26.50;77.80;27.40;96887.00;;;;5081954;28;20234;-67
2021/08/20 10:44:24;;;;;;;2.60;2.27;;;26.70;78.90;27.50;96886.00;;;;5083586;28;20237;-70
2021/08/20 10:47:25;;;;;;;2.83;2.53;;;26.80;79.40;27.50;96881.00;;;;5080704;28;20209;-70
2021/08/20 10:50:17;;;;;;;3.17;2.50;;;26.80;78.40;27.50;96881.00;;;;5078622;28;20205;-70
2021/08/20 10:53:22;;;;;;;4.07;2.70;;;26.90;79.50;27.30;96872.00;;;;5075894;28;20191;-70
2021/08/20 10:56:32;;;;;;;3.30;2.93;;;26.90;74.80;27.70;96885.00;;;;5084328;28;20209;-70
2021/08/20 10:59:56;;;;;;;3.07;2.77;;;27.00;77.20;28.00;96875.00;;;;5085557;28;20203;-70
2021/08/20 11:02:51;;;;;;;3.50;3.20;;;27.00;78.40;28.30;96882.00;;;;5080755;28;20218;-70
2021/08/20 11:05:46;;;;;;;5.27;3.13;;;27.30;79.20;28.00;96890.00;;;;5082066;28;20207;-70
2021/08/20 11:08:39;;;;;;;3.40;2.63;;;27.40;73.10;28.20;96876.00;;;;5082683;28;20592;-71
2021/08/20 11:11:51;;;;;;;9.03;3.13;;;27.40;74.40;28.20;96875.00;;;;5073521;28;20235;-71
2021/08/20 11:14:42;;;;;;;2.53;2.33;;;27.50;75.70;28.20;96877.00;;;;5075671;28;20212;-70
2021/08/20 11:17:52;;;;;;;10.03;4.00;;;27.60;74.40;28.30;96863.00;;;;5079906;28;20209;-72
2021/08/20 11:20:43;;;;;;;3.70;3.00;;;27.60;75.60;28.40;96851.00;;;;5069244;28;20925;-72
2021/08/20 11:23:32;;;;;;;4.17;3.07;;;27.80;75.80;29.40;96876.00;;;;5073552;28;20219;-71
2021/08/20 11:26:31;;;;;;;9.03;5.17;;;28.10;75.10;28.90;96879.00;;;;5075079;28;20210;-71
2021/08/20 11:29:21;;;;;;;6.47;3.10;;;28.20;74.40;29.00;96868.00;;;;5077032;28;20206;-72
2021/08/20 11:32:10;;;;;;;3.10;2.80;;;28.30;74.60;29.60;96821.00;;;;5072143;28;20232;-70
2021/08/20 11:35:01;;;;;;;5.53;4.40;;;28.60;74.30;30.10;96875.00;;;;5072126;28;20201;-71
2021/08/20 11:37:53;;;;;;;6.03;2.83;;;28.90;71.80;29.50;96840.00;;;;5072117;28;20211;-71
2021/08/20 11:40:51;;;;;;;4.57;3.10;;;28.90;69.90;28.90;96879.00;;;;5076983;28;20609;-73
2021/08/20 11:43:50;;;;;;;5.28;3.08;;;28.90;68.30;28.50;96890.00;;;;5079461;28;20235;-72
2021/08/20 11:46:41;;;;;;;3.22;2.75;;;28.50;67.90;28.80;96818.00;;;;5078733;28;20696;-72
2021/08/20 11:49:31;;;;;;;3.63;2.55;;;28.40;67.80;29.70;96867.00;;;;5078872;28;20245;-72
2021/08/20 11:52:21;;;;;;;6.20;2.45;;;28.60;71.10;30.30;96866.00;;;;5076385;28;20222;-72
2021/08/20 11:55:17;;;;;;;3.15;2.72;;;28.90;69.80;29.80;96806.00;;;;5085415;28;20203;-72
2021/08/20 11:58:06;;;;;;;2.45;2.20;;;29.00;67.70;29.80;96873.00;;;;5073202;28;20200;-72
2021/08/20 12:00:56;;;;;;;3.42;2.72;;;29.00;67.90;28.70;96868.00;;;;5077300;28;20224;-73
2021/08/20 12:03:46;;;;;;;3.38;2.72;;;28.80;66.40;30.10;96807.00;;;;5077864;28;20239;-72
2021/08/20 12:06:37;;;;;;;5.25;3.17;;;29.10;68.40;31.70;96865.00;;;;5075932;28;20202;-71
2021/08/20 12:09:28;;;;;;;3.53;2.65;;;29.60;69.00;30.30;96865.00;;;;5080470;28;20208;-70
2021/08/20 12:12:17;;;;;;;3.65;2.80;;;29.70;66.40;29.00;96869.00;;;;5075605;28;20240;-70
2021/08/20 12:15:15;;;;;;;3.33;2.65;;;29.50;63.00;28.10;96800.00;;;;5080906;28;20198;-69
2021/08/20 12:18:20;;;;;;;4.78;2.92;;;29.00;63.10;30.20;96856.00;;;;5075935;28;20209;-70
2021/08/20 12:21:16;;;;;;;3.75;3.38;;;29.20;64.10;30.80;96787.00;;;;5076784;28;20740;-70
2021/08/20 12:24:06;;;;;;;4.22;2.55;;;29.40;63.70;31.70;96783.00;;;;5082632;28;20599;-70
2021/08/20 12:27:16;;;;;;;5.15;3.00;;;29.90;66.00;32.40;96787.00;;;;5081561;28;20202;-71
2021/08/20 12:30:11;;;;;;;4.85;2.90;;;30.40;63.40;33.00;96821.00;;;;5078138;28;20208;-70
2021/08/20 12:33:01;;;;;;;3.45;2.90;;;31.00;62.10;32.20;96789.00;;;;5079509;28;20288;-69
2021/08/20 12:35:53;;;;;;;5.22;2.92;;;31.30;59.80;30.00;96826.00;;;;5077769;28;20207;-70
2021/08/20 12:38:42;;;;;;;4.30;3.30;;;31.20;56.20;31.10;96775.00;;;;5092917;28;20227;-70